Time;durP1;ratioP1;P1;durP2;ratioP2;P2;SDS_P1;SDS_P2;PMS_P1;PMS_P2;Temp;Humidity;BMP_temperature;BMP_pressure;BME280_temperature;BME280_humidity;BME280_pressure;Samples;Min_cycle;Max_cycle;Signal;HPM_P1;HPM_P2
2023/09/27 00:01:21;;;;;;;31.25;28.30;;;13.90;99.90;;;;;;7374124;19;20026;-61
2023/09/27 00:03:47;;;;;;;31.73;28.77;;;13.90;99.90;;;;;;7371764;19;20026;-60
2023/09/27 00:06:17;;;;;;;31.58;28.48;;;13.80;99.90;;;;;;7373434;19;20568;-61
2023/09/27 00:08:43;;;;;;;32.25;29.35;;;13.80;99.90;;;;;;7375302;19;20019;-62
2023/09/27 00:11:09;;;;;;;33.22;30.10;;;13.80;99.90;;;;;;7373699;19;20018;-61
2023/09/27 00:13:36;;;;;;;32.47;29.42;;;13.80;99.90;;;;;;7375115;19;20491;-61
2023/09/27 00:16:02;;;;;;;30.92;28.23;;;13.70;99.90;;;;;;7372763;19;20404;-61
2023/09/27 00:18:29;;;;;;;32.00;28.73;;;13.70;99.90;;;;;;7375848;19;20749;-61
2023/09/27 00:20:56;;;;;;;31.17;28.55;;;13.60;99.90;;;;;;7376262;19;20580;-60
2023/09/27 00:23:22;;;;;;;30.48;27.27;;;13.60;99.90;;;;;;7370909;19;20035;-60
2023/09/27 00:25:49;;;;;;;30.80;28.02;;;13.60;99.90;;;;;;7377417;19;20018;-60
2023/09/27 00:28:35;;;;;;;30.20;27.42;;;13.60;99.90;;;;;;7375193;19;20212;-60
2023/09/27 00:31:02;;;;;;;31.77;28.98;;;13.60;99.90;;;;;;7375029;19;20486;-61
2023/09/27 00:33:48;;;;;;;30.73;27.77;;;13.60;99.90;;;;;;7375009;19;20018;-60
2023/09/27 00:36:16;;;;;;;32.95;30.05;;;13.60;99.90;;;;;;7373348;19;20844;-64
2023/09/27 00:38:42;;;;;;;32.53;29.52;;;13.60;99.90;;;;;;7375933;19;20499;-61
2023/09/27 00:41:08;;;;;;;34.72;31.60;;;13.60;99.90;;;;;;7372814;19;20489;-64
2023/09/27 00:43:35;;;;;;;32.83;30.02;;;13.60;99.90;;;;;;7373856;19;20081;-64
2023/09/27 00:46:07;;;;;;;30.90;27.80;;;13.60;99.90;;;;;;7370570;19;20576;-60
2023/09/27 00:48:36;;;;;;;32.83;29.83;;;13.60;99.90;;;;;;7374502;19;20508;-64
2023/09/27 00:51:04;;;;;;;34.58;31.48;;;13.50;99.90;;;;;;7371099;19;20297;-61
2023/09/27 00:53:36;;;;;;;34.88;31.38;;;13.60;99.90;;;;;;7374019;19;20093;-65
2023/09/27 00:56:02;;;;;;;;;;;13.60;99.90;;;;;;7368415;19;20030;-65
2023/09/27 00:58:34;;;;;;;29.98;27.35;;;13.60;99.90;;;;;;7368600;19;20361;-61
2023/09/27 01:01:00;;;;;;;29.63;26.92;;;13.50;99.90;;;;;;7369235;19;20043;-64
2023/09/27 01:03:27;;;;;;;32.25;29.42;;;13.50;99.90;;;;;;7373857;19;20022;-63
2023/09/27 01:06:13;;;;;;;31.85;29.05;;;13.50;99.90;;;;;;7371774;19;20027;-64
2023/09/27 01:08:41;;;;;;;32.20;29.42;;;13.40;99.90;;;;;;7374475;19;20037;-66
2023/09/27 01:11:07;;;;;;;35.42;32.28;;;13.40;99.90;;;;;;7366034;19;20125;-64
2023/09/27 01:13:34;;;;;;;33.33;30.10;;;13.30;99.90;;;;;;7371728;19;20033;-65
2023/09/27 01:16:01;;;;;;;33.50;30.60;;;13.30;99.90;;;;;;7372598;19;20022;-64
2023/09/27 01:18:27;;;;;;;37.05;33.65;;;13.30;99.90;;;;;;7371266;19;20025;-65
2023/09/27 01:20:54;;;;;;;36.63;33.13;;;13.30;99.90;;;;;;7373856;19;20034;-64
2023/09/27 01:23:21;;;;;;;36.58;33.30;;;13.30;99.90;;;;;;7367563;19;20531;-65
2023/09/27 01:25:50;;;;;;;32.38;29.38;;;13.20;99.90;;;;;;7373987;19;20109;-61
2023/09/27 01:28:21;;;;;;;34.80;31.58;;;13.20;99.90;;;;;;7371114;19;20010;-64
2023/09/27 01:30:47;;;;;;;37.65;34.42;;;13.20;99.90;;;;;;7374104;19;20359;-61
2023/09/27 01:33:13;;;;;;;38.00;34.58;;;13.20;99.90;;;;;;7373094;19;20019;-62
2023/09/27 01:36:02;;;;;;;37.83;34.42;;;13.20;99.90;;;;;;7370074;19;20369;-64
2023/09/27 01:38:33;;;;;;;39.17;35.65;;;13.10;99.90;;;;;;7370765;19;20022;-64
2023/09/27 01:41:00;;;;;;;35.67;32.28;;;13.10;99.90;;;;;;7370708;19;20030;-64
2023/09/27 01:43:26;;;;;;;38.13;34.53;;;13.10;99.90;;;;;;7374279;19;20018;-61
2023/09/27 01:45:53;;;;;;;34.95;31.85;;;13.10;99.90;;;;;;7373433;19;20114;-62
2023/09/27 01:48:21;;;;;;;34.03;31.02;;;13.10;99.90;;;;;;7369949;19;20011;-62
2023/09/27 01:50:48;;;;;;;42.10;38.05;;;13.00;99.90;;;;;;7373679;19;20074;-61
2023/09/27 01:53:14;;;;;;;37.35;33.85;;;13.00;99.90;;;;;;7362904;19;20018;-61
2023/09/27 01:56:02;;;;;;;40.83;36.90;;;13.00;99.90;;;;;;7371563;19;20018;-61
2023/09/27 01:58:29;;;;;;;38.60;34.95;;;13.00;99.90;;;;;;7369829;19;20094;-61
2023/09/27 02:00:55;;;;;;;39.38;35.97;;;13.00;99.90;;;;;;7369577;19;20082;-64
2023/09/27 02:03:21;;;;;;;39.70;36.08;;;13.00;99.90;;;;;;7369904;19;20025;-64
2023/09/27 02:05:48;;;;;;;37.65;34.33;;;13.00;99.90;;;;;;7371580;19;20022;-64
2023/09/27 02:08:15;;;;;;;37.95;34.60;;;12.90;99.90;;;;;;7368096;19;20027;-64
2023/09/27 02:10:41;;;;;;;41.72;37.80;;;12.90;99.90;;;;;;7369805;19;20025;-65
2023/09/27 02:13:08;;;;;;;41.22;37.38;;;12.90;99.90;;;;;;7370782;19;20014;-64
2023/09/27 02:15:35;;;;;;;38.03;34.47;;;12.90;99.90;;;;;;7371599;19;20509;-64
2023/09/27 02:18:01;;;;;;;40.22;36.35;;;12.90;99.90;;;;;;7368773;19;20026;-64
2023/09/27 02:20:28;;;;;;;39.90;36.20;;;12.80;99.90;;;;;;7365087;19;20022;-65
2023/09/27 02:22:54;;;;;;;39.40;35.90;;;12.80;99.90;;;;;;7369625;19;20022;-65
2023/09/27 02:25:21;;;;;;;39.15;35.33;;;12.80;99.90;;;;;;7369160;19;20014;-64
2023/09/27 02:27:47;;;;;;;38.78;35.30;;;12.80;99.90;;;;;;7370161;19;20019;-65
2023/09/27 02:30:14;;;;;;;41.33;37.65;;;12.80;99.90;;;;;;7371599;19;20018;-64
2023/09/27 02:32:43;;;;;;;38.13;34.63;;;12.80;99.90;;;;;;7369224;19;20505;-64
2023/09/27 02:35:10;;;;;;;36.58;33.22;;;12.70;99.90;;;;;;7373466;19;20884;-64
2023/09/27 02:37:39;;;;;;;39.20;35.67;;;12.70;99.90;;;;;;7367203;19;20029;-65
2023/09/27 02:40:13;;;;;;;41.28;37.47;;;12.70;99.90;;;;;;7368979;19;20093;-64
2023/09/27 02:42:45;;;;;;;40.03;36.35;;;12.70;99.90;;;;;;7367835;19;20033;-64
2023/09/27 02:45:12;;;;;;;39.13;35.63;;;12.70;99.90;;;;;;7364291;19;20679;-64
2023/09/27 02:47:40;;;;;;;40.03;36.38;;;12.60;99.90;;;;;;7369788;19;20037;-65
2023/09/27 02:50:10;;;;;;;43.03;39.13;;;12.60;99.90;;;;;;7368519;19;20029;-65
2023/09/27 02:52:40;;;;;;;40.85;37.00;;;12.60;99.90;;;;;;7366777;19;20022;-61
2023/09/27 02:55:11;;;;;;;39.45;35.58;;;12.60;99.90;;;;;;7363810;19;20015;-61
2023/09/27 02:57:39;;;;;;;40.45;36.45;;;12.50;99.90;;;;;;7363773;19;20014;-60
2023/09/27 03:00:06;;;;;;;37.85;34.17;;;12.50;99.90;;;;;;7365678;19;20018;-60
2023/09/27 03:02:33;;;;;;;40.40;36.58;;;12.50;99.90;;;;;;7366394;19;20015;-62
2023/09/27 03:05:03;;;;;;;41.83;38.08;;;12.40;99.90;;;;;;7364097;19;20018;-61
2023/09/27 03:07:30;;;;;;;39.67;35.97;;;12.50;99.90;;;;;;7366062;19;20014;-60
2023/09/27 03:09:58;;;;;;;41.60;37.55;;;12.40;99.90;;;;;;7375133;19;20485;-64
2023/09/27 03:12:25;;;;;;;43.60;39.60;;;12.40;99.90;;;;;;7370631;19;20082;-64
2023/09/27 03:14:52;;;;;;;38.08;34.60;;;12.40;99.90;;;;;;7376600;19;20038;-64
2023/09/27 03:17:18;;;;;;;40.00;36.38;;;12.40;99.90;;;;;;7371932;19;20716;-64
2023/09/27 03:19:47;;;;;;;44.05;39.90;;;12.30;99.90;;;;;;7372640;19;20029;-64
2023/09/27 03:22:34;;;;;;;42.38;38.47;;;12.30;99.90;;;;;;7375046;19;20018;-65
2023/09/27 03:25:00;;;;;;;41.22;37.40;;;12.30;99.90;;;;;;7370856;19;20022;-65
2023/09/27 03:27:27;;;;;;;40.53;36.75;;;12.20;99.90;;;;;;7369855;19;20022;-65
2023/09/27 03:29:53;;;;;;;40.95;37.13;;;12.20;99.90;;;;;;7373242;19;20501;-65
2023/09/27 03:32:19;;;;;;;42.80;38.75;;;12.20;99.90;;;;;;7369787;19;20925;-65
2023/09/27 03:34:46;;;;;;;39.38;35.95;;;12.20;99.90;;;;;;7372326;19;20379;-64
2023/09/27 03:37:14;;;;;;;42.80;38.72;;;12.20;99.90;;;;;;7370811;19;20017;-64
2023/09/27 03:39:40;;;;;;;43.53;39.42;;;12.20;99.90;;;;;;7372496;19;20599;-64
2023/09/27 03:42:06;;;;;;;42.20;38.28;;;12.20;99.90;;;;;;7374188;19;20018;-64
2023/09/27 03:44:34;;;;;;;42.42;38.63;;;12.20;99.90;;;;;;7370339;19;20113;-63
2023/09/27 03:47:03;;;;;;;40.80;37.03;;;12.20;99.90;;;;;;7369129;19;20023;-64
2023/09/27 03:49:32;;;;;;;42.47;38.60;;;12.20;99.90;;;;;;7369940;19;20040;-65
2023/09/27 03:51:59;;;;;;;45.25;40.95;;;12.10;99.90;;;;;;7372993;19;20014;-65
2023/09/27 03:54:25;;;;;;;42.58;38.67;;;12.10;99.90;;;;;;7370934;19;20137;-64
2023/09/27 03:56:53;;;;;;;45.75;41.47;;;12.10;99.90;;;;;;7368268;19;20660;-64
2023/09/27 03:59:20;;;;;;;43.40;39.63;;;12.10;99.90;;;;;;7367719;19;20372;-65
2023/09/27 04:01:46;;;;;;;47.28;42.65;;;12.10;99.90;;;;;;7373831;19;20057;-64
2023/09/27 04:04:12;;;;;;;47.33;42.92;;;12.10;99.90;;;;;;7363102;19;20404;-65
2023/09/27 04:06:38;;;;;;;45.25;41.13;;;12.10;99.90;;;;;;7370405;19;20025;-64
2023/09/27 04:09:09;;;;;;;44.10;39.95;;;12.10;99.90;;;;;;7369465;19;20608;-65
2023/09/27 04:11:36;;;;;;;46.83;42.53;;;12.10;99.90;;;;;;7373347;19;20022;-65
2023/09/27 04:14:05;;;;;;;47.67;43.08;;;12.10;99.90;;;;;;7371431;19;20368;-65
2023/09/27 04:16:32;;;;;;;50.55;45.95;;;12.10;99.90;;;;;;7375804;19;20572;-65
2023/09/27 04:18:59;;;;;;;45.70;41.40;;;12.10;99.90;;;;;;7371057;19;20532;-65
2023/09/27 04:21:26;;;;;;;45.35;41.13;;;12.00;99.90;;;;;;7372578;19;20022;-64
2023/09/27 04:23:56;;;;;;;46.17;41.88;;;12.00;99.90;;;;;;7371373;19;20018;-64
2023/09/27 04:26:23;;;;;;;45.65;41.20;;;12.00;99.90;;;;;;7372732;19;20022;-60
2023/09/27 04:28:50;;;;;;;48.17;43.65;;;12.00;99.90;;;;;;7371017;19;20770;-60
2023/09/27 04:31:17;;;;;;;47.80;43.28;;;12.00;99.90;;;;;;7372517;19;20052;-60
2023/09/27 04:33:44;;;;;;;48.15;43.65;;;12.00;99.90;;;;;;7373098;19;20018;-62
2023/09/27 04:36:17;;;;;;;45.50;40.88;;;12.00;99.90;;;;;;7373496;19;20018;-61
2023/09/27 04:39:14;;;;;;;45.83;41.65;;;11.90;99.90;;;;;;7367025;19;20556;-64
2023/09/27 04:41:41;;;;;;;50.17;45.22;;;11.90;99.90;;;;;;7371355;19;20084;-65
2023/09/27 04:44:07;;;;;;;49.08;44.40;;;11.90;99.90;;;;;;7368488;19;20026;-65
2023/09/27 04:46:33;;;;;;;48.10;43.60;;;11.90;99.90;;;;;;7366030;19;20014;-65
2023/09/27 04:49:00;;;;;;;47.42;42.95;;;11.90;99.90;;;;;;7369677;19;20014;-63
2023/09/27 04:51:26;;;;;;;46.13;41.72;;;11.90;99.90;;;;;;7366343;19;20018;-64
2023/09/27 04:53:53;;;;;;;46.00;41.80;;;11.90;99.90;;;;;;7372057;19;20023;-65
2023/09/27 04:56:19;;;;;;;47.45;43.13;;;11.90;99.90;;;;;;7369414;19;20026;-64
2023/09/27 04:58:46;;;;;;;46.08;41.78;;;11.90;99.90;;;;;;7369620;19;20363;-65
2023/09/27 05:01:12;;;;;;;42.83;38.92;;;11.90;99.90;;;;;;7362449;19;20022;-64
2023/09/27 05:03:38;;;;;;;46.65;42.38;;;11.80;99.90;;;;;;7365909;19;20580;-64
2023/09/27 05:06:05;;;;;;;44.63;40.53;;;11.80;99.90;;;;;;7366638;19;20014;-64
2023/09/27 05:08:31;;;;;;;46.65;42.38;;;11.80;99.90;;;;;;7367289;19;20740;-64
2023/09/27 05:10:57;;;;;;;45.72;41.15;;;11.80;99.90;;;;;;7369700;19;20089;-64
2023/09/27 05:13:23;;;;;;;46.53;42.13;;;11.80;99.90;;;;;;7366132;19;20018;-63
2023/09/27 05:15:50;;;;;;;45.05;41.00;;;11.80;99.90;;;;;;7371130;19;20018;-64
2023/09/27 05:18:16;;;;;;;47.22;42.75;;;11.80;99.90;;;;;;7365765;19;20037;-64
2023/09/27 05:20:46;;;;;;;46.40;41.80;;;11.80;99.90;;;;;;7370561;19;20121;-61
2023/09/27 05:23:12;;;;;;;47.22;42.63;;;11.80;99.90;;;;;;7369625;19;20014;-65
2023/09/27 05:25:39;;;;;;;47.70;43.05;;;11.90;99.90;;;;;;7366383;19;20041;-65
2023/09/27 05:28:05;;;;;;;49.85;45.17;;;11.90;99.90;;;;;;7363998;19;20030;-64
2023/09/27 05:30:31;;;;;;;53.45;48.50;;;12.00;99.90;;;;;;7371536;19;20021;-59
2023/09/27 05:32:57;;;;;;;51.92;47.13;;;12.00;99.90;;;;;;7369685;19;20026;-61
2023/09/27 05:35:24;;;;;;;55.03;49.33;;;12.10;99.90;;;;;;7366599;19;20050;-61
2023/09/27 05:37:50;;;;;;;55.42;50.25;;;12.20;99.90;;;;;;7368984;19;20014;-60
2023/09/27 05:40:16;;;;;;;57.53;51.88;;;12.30;99.90;;;;;;7364731;19;20045;-60
2023/09/27 05:42:43;;;;;;;51.70;46.97;;;12.30;99.90;;;;;;7370433;19;20014;-60
2023/09/27 05:45:11;;;;;;;56.60;50.85;;;12.40;99.90;;;;;;7366053;19;20018;-60
2023/09/27 05:47:39;;;;;;;55.97;50.72;;;12.50;99.90;;;;;;7370723;19;20022;-60
2023/09/27 05:50:11;;;;;;;55.75;50.40;;;12.50;99.90;;;;;;7364781;19;20714;-60
2023/09/27 05:52:37;;;;;;;54.65;49.47;;;12.60;99.90;;;;;;7368816;19;20481;-60
2023/09/27 05:55:05;;;;;;;58.63;53.20;;;12.60;99.90;;;;;;7367340;19;20045;-61
2023/09/27 05:57:32;;;;;;;53.45;48.22;;;12.70;99.90;;;;;;7369403;19;20011;-60
2023/09/27 06:00:00;;;;;;;56.05;50.58;;;12.80;99.90;;;;;;7364555;19;20408;-61
2023/09/27 06:02:31;;;;;;;55.85;50.63;;;12.80;99.90;;;;;;7368724;19;20026;-61
2023/09/27 06:04:58;;;;;;;53.25;48.33;;;12.80;99.90;;;;;;7370934;19;20499;-60
2023/09/27 06:07:25;;;;;;;55.33;49.92;;;12.90;99.90;;;;;;7367735;19;20015;-60
2023/09/27 06:09:52;;;;;;;54.55;49.40;;;12.90;99.90;;;;;;7369608;19;20017;-60
2023/09/27 06:12:18;;;;;;;49.80;45.00;;;13.00;99.90;;;;;;7366340;19;20018;-60
2023/09/27 06:14:44;;;;;;;53.15;48.00;;;13.00;99.90;;;;;;7371049;19;20100;-61
2023/09/27 06:17:15;;;;;;;53.55;48.55;;;13.10;99.90;;;;;;7368338;19;20010;-60
2023/09/27 06:19:42;;;;;;;55.25;49.90;;;13.10;99.90;;;;;;7370487;19;20018;-60
2023/09/27 06:22:08;;;;;;;53.97;48.88;;;13.10;99.90;;;;;;7364402;19;20021;-59
2023/09/27 06:24:37;;;;;;;53.80;48.75;;;13.20;99.90;;;;;;7368604;19;20018;-61
2023/09/27 06:27:03;;;;;;;50.60;46.13;;;13.20;99.90;;;;;;7366451;19;20078;-60
2023/09/27 06:29:30;;;;;;;52.55;47.58;;;13.30;99.90;;;;;;7372109;19;20018;-60
2023/09/27 06:31:56;;;;;;;52.05;47.35;;;13.30;99.90;;;;;;7367356;19;20445;-61
2023/09/27 06:34:23;;;;;;;50.97;45.90;;;13.30;99.90;;;;;;7369668;19;20463;-58
2023/09/27 06:36:49;;;;;;;51.47;46.67;;;13.40;99.90;;;;;;7367973;19;20011;-60
2023/09/27 06:39:16;;;;;;;52.45;47.42;;;13.40;99.90;;;;;;7366491;19;20030;-65
2023/09/27 06:41:46;;;;;;;53.92;48.90;;;13.50;99.90;;;;;;7364007;19;20026;-65
2023/09/27 06:44:13;;;;;;;51.25;46.47;;;13.50;99.90;;;;;;7370647;19;20019;-64
2023/09/27 06:46:40;;;;;;;47.58;43.20;;;13.60;99.90;;;;;;7372128;19;20030;-64
2023/09/27 06:49:07;;;;;;;45.92;41.38;;;13.70;99.90;;;;;;7373719;19;20020;-64
2023/09/27 06:51:34;;;;;;;48.33;43.95;;;13.80;99.90;;;;;;7373971;19;20377;-65
2023/09/27 06:54:02;;;;;;;48.35;43.42;;;13.90;99.90;;;;;;7377716;19;20070;-65
2023/09/27 06:56:30;;;;;;;45.30;40.88;;;14.00;99.90;;;;;;7373895;19;20015;-64
2023/09/27 06:58:56;;;;;;;45.60;41.30;;;14.00;99.90;;;;;;7378446;19;20097;-63
2023/09/27 07:01:24;;;;;;;45.60;41.60;;;14.30;99.90;;;;;;7373434;19;20036;-65
2023/09/27 07:03:51;;;;;;;43.15;38.92;;;14.60;99.90;;;;;;7379653;19;20025;-65
2023/09/27 07:06:18;;;;;;;39.80;36.20;;;14.90;99.90;;;;;;7373729;19;20023;-65
2023/09/27 07:08:47;;;;;;;38.42;35.00;;;15.20;99.90;;;;;;7375947;19;20035;-65
2023/09/27 07:11:13;;;;;;;37.63;33.88;;;15.70;99.90;;;;;;7370379;19;20010;-66
2023/09/27 07:13:40;;;;;;;34.13;31.20;;;15.90;99.90;;;;;;7377576;19;20025;-68
2023/09/27 07:16:27;;;;;;;35.17;32.17;;;16.00;99.90;;;;;;7374846;19;20033;-67
2023/09/27 07:19:15;;;;;;;35.25;32.28;;;16.20;99.90;;;;;;7378561;19;20022;-65
2023/09/27 07:21:42;;;;;;;34.97;31.95;;;16.20;99.90;;;;;;7372217;19;20022;-65
2023/09/27 07:24:09;;;;;;;34.33;31.42;;;16.10;99.90;;;;;;7372177;19;20432;-65
2023/09/27 07:26:36;;;;;;;36.70;33.25;;;16.40;99.90;;;;;;7373990;19;20469;-64
2023/09/27 07:29:02;;;;;;;34.38;31.27;;;16.70;99.90;;;;;;7370188;19;20029;-65
2023/09/27 07:31:29;;;;;;;33.20;30.25;;;16.70;99.90;;;;;;7374280;19;20023;-65
2023/09/27 07:33:56;;;;;;;35.63;32.42;;;16.60;99.90;;;;;;7375583;19;20113;-65
2023/09/27 07:36:26;;;;;;;34.25;31.02;;;16.70;99.90;;;;;;7373954;19;20018;-65
2023/09/27 07:38:57;;;;;;;36.42;33.22;;;16.60;99.90;;;;;;7377649;19;20018;-65
2023/09/27 07:41:27;;;;;;;37.92;34.40;;;16.50;99.90;;;;;;7370794;19;20021;-63
2023/09/27 07:43:54;;;;;;;36.17;32.67;;;16.40;99.90;;;;;;7379406;19;20470;-64
2023/09/27 07:46:21;;;;;;;39.47;35.97;;;16.30;99.90;;;;;;7366469;19;20407;-64
2023/09/27 07:49:08;;;;;;;38.17;34.47;;;16.20;99.90;;;;;;7373692;19;20014;-65
2023/09/27 07:51:34;;;;;;;36.78;33.20;;;16.50;99.90;;;;;;7371929;19;20015;-65
2023/09/27 07:54:03;;;;;;;38.25;34.67;;;16.60;99.90;;;;;;7373143;19;20045;-65
2023/09/27 07:56:36;;;;;;;38.42;35.13;;;16.70;99.90;;;;;;7370796;19;20090;-64
2023/09/27 07:59:03;;;;;;;36.55;33.20;;;16.80;99.90;;;;;;7375626;19;20014;-63
2023/09/27 08:01:30;;;;;;;37.78;34.40;;;16.90;99.90;;;;;;7370939;19;20534;-64
2023/09/27 08:04:06;;;;;;;37.67;34.45;;;16.90;99.90;;;;;;7374546;19;20017;-64
2023/09/27 08:06:36;;;;;;;37.45;34.20;;;16.70;99.90;;;;;;7373807;19;20018;-60
2023/09/27 08:09:02;;;;;;;37.85;34.30;;;16.70;99.90;;;;;;7373949;19;20528;-59
2023/09/27 08:11:28;;;;;;;37.70;34.50;;;16.80;99.90;;;;;;7373838;19;20019;-64
2023/09/27 08:13:57;;;;;;;38.40;34.92;;;16.90;99.90;;;;;;7375418;19;20017;-65
2023/09/27 08:16:26;;;;;;;35.20;32.10;;;17.20;99.90;;;;;;7372037;19;20915;-65
2023/09/27 08:18:52;;;;;;;34.10;31.17;;;17.90;99.90;;;;;;7376304;19;20522;-65
2023/09/27 08:21:18;;;;;;;33.90;30.90;;;18.80;99.90;;;;;;7370949;19;20094;-60
2023/09/27 08:23:45;;;;;;;31.00;28.48;;;19.70;99.90;;;;;;7374485;19;20019;-65
2023/09/27 08:26:14;;;;;;;29.33;26.60;;;20.10;99.90;;;;;;7362066;19;20021;-65
2023/09/27 08:28:40;;;;;;;28.95;26.42;;;21.10;99.90;;;;;;7368173;19;20051;-60
2023/09/27 08:31:07;;;;;;;28.20;25.45;;;21.20;99.90;;;;;;7360738;19;20067;-65
2023/09/27 08:33:33;;;;;;;29.77;27.08;;;21.50;99.90;;;;;;7367863;19;20085;-65
2023/09/27 08:36:02;;;;;;;27.48;25.27;;;21.60;99.90;;;;;;7364152;19;20408;-64
2023/09/27 08:38:32;;;;;;;27.65;25.25;;;21.60;99.90;;;;;;7355668;19;20509;-65
2023/09/27 08:41:03;;;;;;;27.40;25.13;;;21.80;99.90;;;;;;7366876;19;20074;-65
2023/09/27 08:43:32;;;;;;;28.35;25.70;;;21.90;99.90;;;;;;7365790;19;20018;-66
2023/09/27 08:46:01;;;;;;;27.88;25.50;;;22.00;99.90;;;;;;7359427;19;20908;-64
2023/09/27 08:48:30;;;;;;;26.80;24.23;;;22.40;99.90;;;;;;7371177;19;20035;-65
2023/09/27 08:51:04;;;;;;;26.27;24.05;;;22.80;99.90;;;;;;7365650;19;20027;-65
2023/09/27 08:53:32;;;;;;;25.13;22.98;;;23.20;99.90;;;;;;7370104;19;20015;-60
2023/09/27 08:55:59;;;;;;;24.90;22.65;;;23.90;99.90;;;;;;7359007;19;20021;-65
2023/09/27 08:58:27;;;;;;;26.50;24.20;;;24.10;99.90;;;;;;7362887;19;20014;-65
2023/09/27 09:00:54;;;;;;;24.85;22.80;;;24.40;99.90;;;;;;7359245;19;20018;-59
2023/09/27 09:03:21;;;;;;;25.80;23.67;;;24.30;99.90;;;;;;7358009;19;20366;-65
2023/09/27 09:05:48;;;;;;;24.98;22.88;;;23.90;99.90;;;;;;7352556;19;20022;-65
2023/09/27 09:08:14;;;;;;;25.15;22.83;;;23.40;99.90;;;;;;7364385;19;20041;-66
2023/09/27 09:10:43;;;;;;;25.70;23.50;;;23.50;99.90;;;;;;7366549;19;20488;-66
2023/09/27 09:13:09;;;;;;;24.30;22.15;;;23.60;99.90;;;;;;7358441;19;20029;-66
2023/09/27 09:15:40;;;;;;;24.75;22.65;;;24.10;99.90;;;;;;7353973;19;20456;-66
2023/09/27 09:18:14;;;;;;;23.77;21.58;;;24.40;99.90;;;;;;7353123;19;20391;-65
2023/09/27 09:20:54;;;;;;;23.33;21.13;;;25.00;99.90;;;;;;7370611;19;20086;-65
2023/09/27 09:23:31;;;;;;;23.33;21.13;;;25.20;99.90;;;;;;7367997;19;20595;-65
2023/09/27 09:25:58;;;;;;;22.30;20.50;;;25.60;99.90;;;;;;7358424;19;20035;-66
2023/09/27 09:28:25;;;;;;;21.33;19.52;;;25.50;99.90;;;;;;7365225;19;20049;-59
2023/09/27 09:31:26;;;;;;;21.52;19.63;;;25.20;99.90;;;;;;7355406;19;20408;-59
2023/09/27 09:34:06;;;;;;;21.38;19.38;;;24.90;99.90;;;;;;7355165;19;20018;-59
2023/09/27 09:36:33;;;;;;;22.20;20.23;;;24.60;99.90;;;;;;7361111;19;20848;-59
2023/09/27 09:39:16;;;;;;;22.83;20.73;;;24.00;99.90;;;;;;7365077;19;20665;-60
2023/09/27 09:41:50;;;;;;;23.33;21.23;;;23.40;99.90;;;;;;7365881;19;20504;-59
2023/09/27 09:44:21;;;;;;;24.08;21.67;;;23.00;99.90;;;;;;7355848;19;20465;-59
2023/09/27 09:46:51;;;;;;;23.10;20.92;;;23.20;99.90;;;;;;7361869;19;20412;-60
2023/09/27 09:49:18;;;;;;;22.77;20.65;;;23.20;99.90;;;;;;7365792;19;20023;-59
2023/09/27 09:51:55;;;;;;;20.77;18.63;;;22.90;99.90;;;;;;7357551;19;20055;-60
2023/09/27 09:54:47;;;;;;;21.52;19.48;;;22.80;99.90;;;;;;7367382;19;20054;-58
2023/09/27 09:57:19;;;;;;;;;;;22.90;99.90;;;;;;7366801;19;20436;-58
2023/09/27 10:00:00;;;;;;;23.67;21.58;;;23.00;99.90;;;;;;7363008;19;19923;-60
2023/09/27 10:02:32;;;;;;;24.60;22.20;;;23.60;99.90;;;;;;7366662;19;20025;-59
2023/09/27 10:05:00;;;;;;;22.63;20.35;;;24.30;99.90;;;;;;7359538;19;20483;-60
2023/09/27 10:07:27;;;;;;;20.92;18.90;;;25.00;99.90;;;;;;7351697;19;20019;-59
2023/09/27 10:09:55;;;;;;;19.30;17.40;;;25.90;99.90;;;;;;7367709;19;20090;-59
2023/09/27 10:12:21;;;;;;;21.13;18.95;;;26.00;99.90;;;;;;7364760;19;20019;-60
2023/09/27 10:14:49;;;;;;;19.45;17.55;;;26.30;99.90;;;;;;7367053;19;20018;-59
2023/09/27 10:17:24;;;;;;;20.00;18.00;;;25.80;99.90;;;;;;7359740;19;20025;-59
2023/09/27 10:20:43;;;;;;;23.13;20.75;;;25.30;99.90;;;;;;7359316;19;20010;-58
2023/09/27 10:23:10;;;;;;;22.77;20.58;;;24.70;99.90;;;;;;7349096;19;20039;-59
2023/09/27 10:25:36;;;;;;;21.80;19.88;;;24.40;99.90;;;;;;7363813;19;20066;-59
2023/09/27 10:28:09;;;;;;;23.05;20.88;;;23.90;99.90;;;;;;7365115;19;20018;-59
2023/09/27 10:31:05;;;;;;;22.15;19.95;;;23.80;99.90;;;;;;7364332;19;20014;-59
2023/09/27 10:33:32;;;;;;;22.08;19.90;;;24.30;99.90;;;;;;7365871;19;20378;-59
2023/09/27 10:36:01;;;;;;;22.17;20.27;;;24.70;99.90;;;;;;7362801;19;20078;-59
2023/09/27 10:38:43;;;;;;;21.92;19.85;;;25.30;99.90;;;;;;7355939;19;20048;-59
2023/09/27 10:41:29;;;;;;;56.50;51.38;;;25.00;99.90;;;;;;7362251;19;20029;-66
2023/09/27 10:43:56;;;;;;;21.95;19.70;;;24.60;99.90;;;;;;7362273;19;20382;-67
2023/09/27 10:46:43;;;;;;;43.45;39.38;;;24.70;99.90;;;;;;7365413;19;20019;-67
2023/09/27 10:49:09;;;;;;;24.88;22.42;;;24.60;99.90;;;;;;7363540;19;20093;-67
2023/09/27 10:51:36;;;;;;;23.10;20.88;;;24.80;99.90;;;;;;7366086;19;20026;-66
2023/09/27 10:54:08;;;;;;;21.67;19.65;;;25.30;99.90;;;;;;7370076;19;20452;-66
2023/09/27 10:56:35;;;;;;;26.48;24.05;;;25.90;99.90;;;;;;7365754;19;20676;-62
2023/09/27 10:59:03;;;;;;;21.48;19.23;;;26.20;99.90;;;;;;7366267;19;20015;-63
2023/09/27 11:01:31;;;;;;;29.90;27.27;;;26.40;99.90;;;;;;7362757;19;20117;-68
2023/09/27 11:03:59;;;;;;;20.70;18.65;;;26.90;99.90;;;;;;7364074;19;20373;-67
2023/09/27 11:06:28;;;;;;;30.17;27.45;;;27.00;99.90;;;;;;7363750;19;20461;-67
2023/09/27 11:09:08;;;;;;;34.60;31.38;;;27.50;99.90;;;;;;7354371;19;20018;-67
2023/09/27 11:11:35;;;;;;;18.65;17.02;;;27.50;99.90;;;;;;7361856;19;20367;-67
2023/09/27 11:14:01;;;;;;;18.27;16.50;;;27.50;99.90;;;;;;7361100;19;20019;-67
2023/09/27 11:16:27;;;;;;;29.65;26.63;;;27.20;99.90;;;;;;7365125;19;20549;-68
2023/09/27 11:18:57;;;;;;;19.77;17.77;;;27.20;99.90;;;;;;7365342;19;20363;-67
2023/09/27 11:21:28;;;;;;;18.77;16.85;;;26.80;99.90;;;;;;7365886;19;20018;-68
2023/09/27 11:24:03;;;;;;;19.63;17.60;;;26.20;99.90;;;;;;7364537;19;20401;-67
2023/09/27 11:26:34;;;;;;;17.92;16.02;;;25.70;99.90;;;;;;7368716;19;20507;-67
2023/09/27 11:29:05;;;;;;;15.88;14.20;;;25.50;99.90;;;;;;7371851;19;20021;-67
2023/09/27 11:31:36;;;;;;;27.83;24.77;;;25.70;99.90;;;;;;7370916;19;20033;-68
2023/09/27 11:34:19;;;;;;;16.00;14.50;;;25.50;99.90;;;;;;7373595;19;20497;-63
2023/09/27 11:37:05;;;;;;;76.15;69.20;;;25.50;99.90;;;;;;7371087;19;20473;-65
2023/09/27 11:39:52;;;;;;;17.92;16.20;;;25.70;99.90;;;;;;7372664;19;20018;-68
2023/09/27 11:42:23;;;;;;;25.85;23.10;;;25.60;99.90;;;;;;7371132;19;20517;-66
2023/09/27 11:45:12;;;;;;;17.55;15.82;;;25.30;99.90;;;;;;7372806;19;20447;-67
2023/09/27 11:47:46;;;;;;;37.53;33.92;;;25.20;99.90;;;;;;7371795;19;20576;-67
2023/09/27 11:50:13;;;;;;;23.05;20.73;;;25.00;99.90;;;;;;7369084;19;20019;-67
2023/09/27 11:52:43;;;;;;;29.80;27.00;;;24.80;99.90;;;;;;7371528;19;20029;-67
2023/09/27 11:55:09;;;;;;;24.80;22.52;;;24.60;99.90;;;;;;7372419;19;20019;-67
2023/09/27 11:57:36;;;;;;;16.95;15.18;;;24.50;99.90;;;;;;7370245;19;20015;-67
2023/09/27 12:00:06;;;;;;;17.67;15.98;;;24.40;99.90;;;;;;7376189;19;20022;-67
2023/09/27 12:02:53;;;;;;;22.23;20.08;;;24.10;99.90;;;;;;7372806;19;20145;-65
2023/09/27 12:05:22;;;;;;;15.93;14.32;;;23.90;99.90;;;;;;7370550;19;20018;-62
2023/09/27 12:07:49;;;;;;;18.17;16.05;;;24.00;99.90;;;;;;7373506;19;20444;-66
2023/09/27 12:10:16;;;;;;;17.60;14.98;;;24.10;99.90;;;;;;7371570;19;20124;-66
2023/09/27 12:12:44;;;;;;;16.60;15.00;;;24.30;99.90;;;;;;7371585;19;20477;-66
2023/09/27 12:15:10;;;;;;;18.73;16.77;;;24.20;99.90;;;;;;7369165;19;20481;-66
2023/09/27 12:17:39;;;;;;;16.23;14.52;;;24.30;99.90;;;;;;7369079;19;20054;-66
2023/09/27 12:20:06;;;;;;;14.38;12.88;;;24.30;99.90;;;;;;7370173;19;20547;-65
2023/09/27 12:22:53;;;;;;;16.25;14.57;;;24.70;99.90;;;;;;7373364;19;20014;-65
2023/09/27 12:25:20;;;;;;;18.42;16.60;;;26.10;99.90;;;;;;7365905;19;20023;-63
2023/09/27 12:27:48;;;;;;;14.73;13.13;;;26.70;99.90;;;;;;7373135;19;20037;-66
2023/09/27 12:30:15;;;;;;;15.45;13.85;;;26.80;99.90;;;;;;7362942;19;20022;-67
2023/09/27 12:32:41;;;;;;;16.35;14.02;;;26.40;99.90;;;;;;7373562;19;20018;-62
2023/09/27 12:35:08;;;;;;;20.77;18.70;;;26.20;99.90;;;;;;7368008;19;20389;-67
2023/09/27 12:37:35;;;;;;;29.98;27.13;;;25.90;99.90;;;;;;7373170;19;20010;-67
2023/09/27 12:40:21;;;;;;;22.90;20.77;;;25.60;99.90;;;;;;7367530;19;20485;-67